Time;durP1;ratioP1;P1;durP2;ratioP2;P2;SDS_P1;SDS_P2;PMS_P1;PMS_P2;Temp;Humidity;BMP_temperature;BMP_pressure;BME280_temperature;BME280_humidity;BME280_pressure;Samples;Min_cycle;Max_cycle;Signal;HPM_P1;HPM_P2
2021/03/21 00:00:24;;;;;;;26.40;10.85;;;;;;;;;;5132249;27;20114;-79
2021/03/21 00:02:50;;;;;;;24.38;10.05;;;;;;;;;;5132401;27;20054;-78
2021/03/21 00:05:16;;;;;;;24.20;9.57;;;;;;;;;;5112108;27;20284;-77
2021/03/21 00:07:42;;;;;;;19.63;9.20;;;;;;;;;;5132142;27;20051;-78
2021/03/21 00:10:09;;;;;;;24.13;10.43;;;;;;;;;;5110802;27;20036;-78
2021/03/21 00:12:35;;;;;;;24.02;10.05;;;;;;;;;;5131990;27;20482;-79
2021/03/21 00:15:01;;;;;;;28.70;10.15;;;;;;;;;;5132029;27;20113;-78
2021/03/21 00:17:27;;;;;;;27.13;11.32;;;;;;;;;;5131573;27;20063;-78
2021/03/21 00:19:54;;;;;;;31.70;13.25;;;;;;;;;;5130011;27;20035;-78
2021/03/21 00:22:20;;;;;;;30.48;13.40;;;;;;;;;;5129782;27;20385;-76
2021/03/21 00:24:47;;;;;;;35.58;14.63;;;;;;;;;;5113696;27;20059;-76
2021/03/21 00:27:13;;;;;;;36.22;15.80;;;;;;;;;;5129215;27;20087;-78
2021/03/21 00:29:41;;;;;;;35.88;15.93;;;;;;;;;;5129851;27;20059;-76
2021/03/21 00:32:07;;;;;;;38.40;17.20;;;;;;;;;;5129201;27;20039;-76
2021/03/21 00:34:33;;;;;;;38.10;16.85;;;;;;;;;;5130785;27;20047;-76
2021/03/21 00:37:00;;;;;;;44.60;17.50;;;;;;;;;;5130070;27;20077;-75
2021/03/21 00:39:26;;;;;;;35.15;17.88;;;;;;;;;;5131032;27;20181;-75
2021/03/21 00:41:52;;;;;;;41.22;17.55;;;;;;;;;;5131604;27;20047;-76
2021/03/21 00:44:18;;;;;;;39.80;17.77;;;;;;;;;;5129605;27;20397;-76
2021/03/21 00:46:44;;;;;;;40.55;16.23;;;;;;;;;;5129828;27;20389;-76
2021/03/21 00:49:10;;;;;;;34.60;16.30;;;;;;;;;;5129878;27;20035;-76
2021/03/21 00:51:36;;;;;;;35.75;16.63;;;;;;;;;;5130194;27;20196;-78
2021/03/21 00:54:03;;;;;;;37.78;16.35;;;;;;;;;;5129452;27;20038;-76
2021/03/21 00:56:35;;;;;;;30.27;14.07;;;;;;;;;;5129576;27;20039;-77
2021/03/21 00:59:01;;;;;;;43.47;17.40;;;;;;;;;;5130894;27;20046;-77
2021/03/21 01:01:28;;;;;;;34.35;15.65;;;;;;;;;;5111717;27;20139;-77
2021/03/21 01:03:54;;;;;;;39.08;17.92;;;;;;;;;;5130073;27;20078;-76
2021/03/21 01:06:20;;;;;;;37.90;16.60;;;;;;;;;;5130272;27;20060;-76
2021/03/21 01:08:46;;;;;;;41.30;17.48;;;;;;;;;;5131542;27;20042;-76
2021/03/21 01:11:14;;;;;;;47.35;17.77;;;;;;;;;;5128805;27;20122;-76
2021/03/21 01:13:41;;;;;;;41.60;17.30;;;;;;;;;;5129566;27;20543;-76
2021/03/21 01:16:10;;;;;;;37.97;16.13;;;;;;;;;;5130358;27;20035;-76
2021/03/21 01:18:36;;;;;;;43.05;17.95;;;;;;;;;;5130556;27;20164;-76
2021/03/21 01:21:03;;;;;;;50.10;18.15;;;;;;;;;;5128925;28;20050;-77
2021/03/21 01:23:29;;;;;;;48.60;17.98;;;;;;;;;;5128647;28;20045;-76
2021/03/21 01:25:55;;;;;;;41.00;18.52;;;;;;;;;;5129937;28;20047;-76
2021/03/21 01:28:22;;;;;;;44.05;18.58;;;;;;;;;;5129467;28;20040;-76
2021/03/21 01:30:48;;;;;;;45.97;18.02;;;;;;;;;;5131302;28;20035;-76
2021/03/21 01:33:14;;;;;;;49.70;16.65;;;;;;;;;;5130242;28;20096;-76
2021/03/21 01:35:40;;;;;;;34.15;14.00;;;;;;;;;;5130809;28;20390;-76
2021/03/21 01:38:07;;;;;;;30.52;13.00;;;;;;;;;;5130260;28;20118;-76
2021/03/21 01:40:34;;;;;;;21.83;10.48;;;;;;;;;;5130353;28;20470;-76
2021/03/21 01:43:00;;;;;;;27.40;10.90;;;;;;;;;;5130747;28;20466;-76
2021/03/21 01:45:31;;;;;;;27.10;10.95;;;;;;;;;;5128660;28;20050;-77
2021/03/21 01:47:58;;;;;;;32.15;11.48;;;;;;;;;;5130612;28;20039;-76
2021/03/21 01:50:43;;;;;;;26.90;10.50;;;;;;;;;;5130157;28;20153;-77
2021/03/21 01:53:09;;;;;;;28.13;11.68;;;;;;;;;;5129273;28;20042;-77
2021/03/21 01:55:36;;;;;;;28.27;10.25;;;;;;;;;;5129323;28;20047;-77
2021/03/21 01:58:02;;;;;;;27.30;9.68;;;;;;;;;;5130201;28;20103;-77
2021/03/21 02:00:28;;;;;;;20.95;9.65;;;;;;;;;;5126874;28;20462;-77
2021/03/21 02:02:55;;;;;;;22.88;9.40;;;;;;;;;;5118741;28;20432;-77
2021/03/21 02:05:21;;;;;;;27.58;10.52;;;;;;;;;;5121595;28;20043;-77
2021/03/21 02:07:56;;;;;;;27.00;10.80;;;;;;;;;;5128847;28;20058;-77
2021/03/21 02:10:22;;;;;;;23.73;9.75;;;;;;;;;;5130388;28;20046;-77
2021/03/21 02:13:07;;;;;;;23.98;9.48;;;;;;;;;;5129267;28;20073;-76
2021/03/21 02:15:50;;;;;;;31.92;9.40;;;;;;;;;;5127843;28;20452;-76
2021/03/21 02:18:28;;;;;;;26.42;8.95;;;;;;;;;;5128231;28;20031;-76
2021/03/21 02:20:54;;;;;;;24.48;8.95;;;;;;;;;;5128635;28;20379;-76
2021/03/21 02:23:39;;;;;;;34.90;10.18;;;;;;;;;;5129545;28;20062;-76
2021/03/21 02:26:06;;;;;;;29.02;8.98;;;;;;;;;;5130759;27;20039;-77
2021/03/21 02:28:38;;;;;;;23.58;8.82;;;;;;;;;;5132321;27;20035;-76
2021/03/21 02:31:14;;;;;;;28.50;8.73;;;;;;;;;;5133821;27;20054;-76
2021/03/21 02:33:49;;;;;;;22.98;7.43;;;;;;;;;;5132530;27;20046;-76
2021/03/21 02:36:17;;;;;;;25.85;8.02;;;;;;;;;;5132555;27;20073;-76
2021/03/21 02:38:53;;;;;;;22.48;7.57;;;;;;;;;;5131232;27;20054;-77
2021/03/21 02:41:23;;;;;;;23.27;6.38;;;;;;;;;;5128464;27;20038;-76
2021/03/21 02:43:52;;;;;;;23.75;7.13;;;;;;;;;;5133639;27;20039;-76
2021/03/21 02:46:24;;;;;;;20.33;6.45;;;;;;;;;;5133463;27;20043;-76
2021/03/21 02:48:57;;;;;;;21.75;6.22;;;;;;;;;;5132072;27;20047;-76
2021/03/21 02:51:25;;;;;;;22.05;6.10;;;;;;;;;;5132246;27;20088;-76
2021/03/21 02:53:58;;;;;;;19.25;5.82;;;;;;;;;;5131725;27;20070;-76
2021/03/21 02:56:27;;;;;;;19.27;5.15;;;;;;;;;;5133228;27;20045;-76
2021/03/21 02:59:02;;;;;;;21.80;5.63;;;;;;;;;;5131789;27;20039;-76
2021/03/21 03:01:33;;;;;;;26.55;5.60;;;;;;;;;;5129103;27;20028;-76
2021/03/21 03:04:01;;;;;;;23.27;5.05;;;;;;;;;;5133370;27;20043;-76
2021/03/21 03:06:30;;;;;;;21.63;5.50;;;;;;;;;;5131447;27;20046;-76
2021/03/21 03:09:00;;;;;;;23.45;5.15;;;;;;;;;;5131590;27;20039;-76
2021/03/21 03:11:30;;;;;;;19.60;5.10;;;;;;;;;;5131311;27;20397;-76
2021/03/21 03:14:06;;;;;;;20.05;4.88;;;;;;;;;;5153289;27;20031;-76
2021/03/21 03:16:38;;;;;;;21.85;5.03;;;;;;;;;;5132220;27;20035;-77
2021/03/21 03:19:20;;;;;;;19.50;4.85;;;;;;;;;;5131206;27;20064;-77
2021/03/21 03:21:58;;;;;;;22.55;4.60;;;;;;;;;;5130804;27;20394;-77
2021/03/21 03:24:30;;;;;;;21.60;3.95;;;;;;;;;;5131587;27;20126;-77
2021/03/21 03:27:02;;;;;;;20.88;4.40;;;;;;;;;;5133271;27;20055;-77
2021/03/21 03:29:32;;;;;;;28.48;4.70;;;;;;;;;;5113497;27;20051;-77
2021/03/21 03:32:00;;;;;;;30.98;4.00;;;;;;;;;;5131707;27;21443;-76
2021/03/21 03:34:28;;;;;;;24.95;3.85;;;;;;;;;;5132001;27;20045;-76
2021/03/21 03:36:54;;;;;;;39.25;4.88;;;;;;;;;;5131508;27;20062;-77
2021/03/21 03:39:21;;;;;;;36.22;5.05;;;;;;;;;;5131995;27;20039;-76
2021/03/21 03:41:52;;;;;;;46.80;5.63;;;;;;;;;;5130225;27;20047;-76
2021/03/21 03:44:38;;;;;;;30.55;4.13;;;;;;;;;;5133021;27;20084;-77
2021/03/21 03:47:07;;;;;;;38.00;6.07;;;;;;;;;;5151033;27;20054;-77
2021/03/21 03:49:46;;;;;;;32.35;4.88;;;;;;;;;;5130883;27;20043;-77
2021/03/21 03:52:15;;;;;;;32.47;4.30;;;;;;;;;;5131612;27;20054;-77
2021/03/21 03:54:44;;;;;;;42.75;4.95;;;;;;;;;;5131438;27;20039;-77
2021/03/21 03:57:16;;;;;;;41.10;4.60;;;;;;;;;;5130973;27;20039;-77
2021/03/21 03:59:57;;;;;;;32.85;4.05;;;;;;;;;;5130625;27;20174;-77
2021/03/21 04:02:53;;;;;;;29.63;4.38;;;;;;;;;;5131706;27;20527;-76
2021/03/21 04:05:31;;;;;;;28.23;4.03;;;;;;;;;;5111537;27;20394;-76
2021/03/21 04:08:00;;;;;;;25.88;4.30;;;;;;;;;;5155245;27;20035;-76
2021/03/21 04:10:34;;;;;;;36.88;5.47;;;;;;;;;;5129008;27;20037;-76
2021/03/21 04:13:09;;;;;;;14.88;2.83;;;;;;;;;;5131532;27;20152;-76
2021/03/21 04:15:39;;;;;;;26.98;3.72;;;;;;;;;;5129747;27;20051;-76
2021/03/21 04:18:12;;;;;;;22.85;4.43;;;;;;;;;;5130762;27;20074;-76
2021/03/21 04:20:41;;;;;;;24.80;3.42;;;;;;;;;;5129958;27;20596;-77
2021/03/21 04:23:16;;;;;;;15.52;3.08;;;;;;;;;;5131640;27;20054;-77
2021/03/21 04:25:45;;;;;;;21.85;2.97;;;;;;;;;;5129574;27;20034;-77
2021/03/21 04:28:21;;;;;;;22.33;2.70;;;;;;;;;;5129855;27;20143;-76
2021/03/21 04:30:58;;;;;;;27.50;2.67;;;;;;;;;;5129210;27;20088;-76
2021/03/21 04:33:26;;;;;;;18.08;3.17;;;;;;;;;;5129484;27;20031;-76
2021/03/21 04:35:58;;;;;;;18.00;2.70;;;;;;;;;;5130042;27;20051;-76
2021/03/21 04:38:32;;;;;;;18.67;2.80;;;;;;;;;;5131303;27;20519;-76
2021/03/21 04:40:59;;;;;;;22.77;3.47;;;;;;;;;;5129503;27;20042;-76
2021/03/21 04:43:32;;;;;;;21.90;3.42;;;;;;;;;;5130442;27;20115;-76
2021/03/21 04:46:01;;;;;;;21.20;2.88;;;;;;;;;;5129203;27;20446;-77
2021/03/21 04:48:28;;;;;;;16.20;2.92;;;;;;;;;;5130099;27;20086;-76
2021/03/21 04:51:02;;;;;;;25.40;3.58;;;;;;;;;;5128957;27;20379;-76
2021/03/21 04:53:28;;;;;;;25.73;2.63;;;;;;;;;;5131126;27;20118;-76
2021/03/21 04:56:02;;;;;;;20.48;3.50;;;;;;;;;;5128760;27;20406;-76
2021/03/21 04:58:42;;;;;;;25.63;3.10;;;;;;;;;;5131115;27;20367;-76
2021/03/21 05:01:29;;;;;;;24.20;3.70;;;;;;;;;;5152733;27;20043;-76
2021/03/21 05:04:04;;;;;;;20.70;3.47;;;;;;;;;;5130461;27;20066;-76
2021/03/21 05:06:49;;;;;;;23.52;3.25;;;;;;;;;;5130578;27;20027;-76
2021/03/21 05:09:18;;;;;;;16.63;3.13;;;;;;;;;;5118163;27;20043;-76
2021/03/21 05:11:57;;;;;;;43.03;4.22;;;;;;;;;;5136512;27;20039;-76
2021/03/21 05:14:26;;;;;;;24.73;3.10;;;;;;;;;;5126630;27;20130;-76
2021/03/21 05:16:52;;;;;;;23.67;3.88;;;;;;;;;;5128207;27;20054;-76
2021/03/21 05:19:21;;;;;;;31.25;3.42;;;;;;;;;;5131111;27;20092;-76
2021/03/21 05:21:52;;;;;;;28.05;3.35;;;;;;;;;;5129665;27;20043;-76
2021/03/21 05:24:24;;;;;;;30.13;4.45;;;;;;;;;;5131293;28;20118;-76
2021/03/21 05:26:54;;;;;;;20.38;3.55;;;;;;;;;;5129921;28;20047;-76
2021/03/21 05:29:28;;;;;;;29.50;4.13;;;;;;;;;;5129726;28;20349;-76
2021/03/21 05:31:54;;;;;;;;;;;;;;;;;;5128094;28;20086;-76
2021/03/21 05:34:20;;;;;;;29.65;4.32;;;;;;;;;;5130422;28;20319;-76
2021/03/21 05:37:05;;;;;;;21.80;3.63;;;;;;;;;;5128395;28;20485;-76
2021/03/21 05:39:42;;;;;;;34.20;4.75;;;;;;;;;;5130488;28;20481;-76
2021/03/21 05:42:23;;;;;;;31.75;4.60;;;;;;;;;;5129286;28;20428;-76
2021/03/21 05:44:57;;;;;;;27.17;4.72;;;;;;;;;;5129187;28;20084;-76
2021/03/21 05:47:26;;;;;;;33.70;5.75;;;;;;;;;;5130900;28;20041;-76
2021/03/21 05:50:02;;;;;;;31.10;4.97;;;;;;;;;;5128556;28;20320;-76
2021/03/21 05:52:34;;;;;;;35.13;4.82;;;;;;;;;;5129168;28;20120;-76
2021/03/21 05:55:06;;;;;;;35.58;4.53;;;;;;;;;;5130092;28;20035;-76
2021/03/21 05:57:49;;;;;;;42.47;5.78;;;;;;;;;;5129771;28;20031;-76
2021/03/21 06:00:37;;;;;;;38.67;5.07;;;;;;;;;;5129910;28;20071;-76
2021/03/21 06:03:22;;;;;;;36.78;5.00;;;;;;;;;;5129984;27;20031;-76
2021/03/21 06:06:07;;;;;;;32.75;4.82;;;;;;;;;;5132671;27;20050;-76
2021/03/21 06:08:48;;;;;;;32.17;5.72;;;;;;;;;;5132904;27;20113;-77
2021/03/21 06:11:17;;;;;;;41.97;6.03;;;;;;;;;;5127509;27;20043;-75
2021/03/21 06:13:47;;;;;;;34.03;5.55;;;;;;;;;;5134058;27;20051;-76
2021/03/21 06:16:22;;;;;;;32.38;5.80;;;;;;;;;;5133514;27;20039;-77
2021/03/21 06:19:06;;;;;;;33.88;5.13;;;;;;;;;;5133772;27;20133;-77
2021/03/21 06:21:33;;;;;;;37.30;5.50;;;;;;;;;;5133182;27;20425;-77
2021/03/21 06:24:18;;;;;;;39.63;6.22;;;;;;;;;;5132272;27;20130;-77
2021/03/21 06:26:44;;;;;;;41.58;6.25;;;;;;;;;;5132626;27;20434;-76
2021/03/21 06:29:29;;;;;;;38.58;6.00;;;;;;;;;;5132732;27;20039;-76
2021/03/21 06:32:16;;;;;;;37.70;6.38;;;;;;;;;;5133237;27;20134;-77
2021/03/21 06:34:57;;;;;;;44.88;5.75;;;;;;;;;;5132703;27;20046;-76
2021/03/21 06:37:42;;;;;;;36.58;5.38;;;;;;;;;;5162132;27;20138;-76
2021/03/21 06:40:08;;;;;;;39.88;6.15;;;;;;;;;;5133003;27;20053;-77
2021/03/21 06:42:35;;;;;;;42.80;8.60;;;;;;;;;;5133925;27;20470;-77
2021/03/21 06:45:04;;;;;;;43.33;5.93;;;;;;;;;;5132574;27;20119;-77
2021/03/21 06:47:42;;;;;;;48.42;6.43;;;;;;;;;;5133556;27;20091;-77
2021/03/21 06:50:26;;;;;;;36.22;5.65;;;;;;;;;;5131469;27;20031;-77
2021/03/21 06:53:00;;;;;;;45.70;6.95;;;;;;;;;;5133547;27;20046;-77
2021/03/21 06:55:29;;;;;;;45.30;7.45;;;;;;;;;;5132620;27;20035;-78
2021/03/21 06:58:07;;;;;;;38.17;6.85;;;;;;;;;;5131693;27;20039;-77
2021/03/21 07:00:52;;;;;;;49.63;6.88;;;;;;;;;;5130827;27;20035;-78
2021/03/21 07:03:37;;;;;;;40.33;6.53;;;;;;;;;;5130367;27;20035;-81
2021/03/21 07:06:22;;;;;;;49.67;6.80;;;;;;;;;;5131026;27;20125;-81
2021/03/21 07:09:07;;;;;;;40.33;6.55;;;;;;;;;;5131104;27;20520;-80
2021/03/21 07:11:46;;;;;;;43.35;7.22;;;;;;;;;;5131064;27;20035;-80
2021/03/21 07:14:12;;;;;;;44.22;6.95;;;;;;;;;;5127815;27;20351;-82
2021/03/21 07:16:48;;;;;;;40.60;6.93;;;;;;;;;;5131739;27;20043;-83
2021/03/21 07:19:33;;;;;;;47.97;7.30;;;;;;;;;;5129690;27;20054;-83
2021/03/21 07:22:06;;;;;;;41.78;6.32;;;;;;;;;;5114486;27;20039;-87
2021/03/21 07:24:35;;;;;;;44.60;5.78;;;;;;;;;;5133886;27;20084;-87
2021/03/21 07:27:01;;;;;;;41.55;6.80;;;;;;;;;;5131587;27;20031;-78
2021/03/21 07:29:42;;;;;;;51.40;7.47;;;;;;;;;;5125513;27;20389;-79
2021/03/21 07:32:11;;;;;;;49.10;6.82;;;;;;;;;;5127926;27;20091;-80
2021/03/21 07:34:49;;;;;;;38.95;7.05;;;;;;;;;;5124567;27;20446;-81
2021/03/21 07:37:37;;;;;;;35.92;5.55;;;;;;;;;;5129126;27;20042;-86
2021/03/21 07:40:14;;;;;;;47.45;7.05;;;;;;;;;;5133327;27;20058;-79
2021/03/21 07:42:59;;;;;;;45.42;6.70;;;;;;;;;;5137470;27;20035;-81
2021/03/21 07:45:33;;;;;;;40.45;5.63;;;;;;;;;;5132611;27;20036;-83
2021/03/21 07:48:02;;;;;;;47.72;6.55;;;;;;;;;;5140585;27;20042;-76
2021/03/21 07:50:33;;;;;;;48.40;6.38;;;;;;;;;;5133799;27;20043;-76
2021/03/21 07:53:08;;;;;;;45.40;6.25;;;;;;;;;;5133393;27;20036;-75
2021/03/21 07:55:46;;;;;;;52.85;7.15;;;;;;;;;;5114713;27;20057;-78
2021/03/21 07:58:19;;;;;;;44.75;6.10;;;;;;;;;;5131451;27;20084;-77
2021/03/21 08:00:45;;;;;;;42.83;6.77;;;;;;;;;;5142162;27;20466;-76
2021/03/21 08:03:14;;;;;;;31.35;5.47;;;;;;;;;;5131998;27;20035;-77
2021/03/21 08:05:41;;;;;;;55.28;8.75;;;;;;;;;;5130300;27;20046;-83
2021/03/21 08:08:16;;;;;;;41.97;6.00;;;;;;;;;;5132346;27;20486;-83
2021/03/21 08:10:42;;;;;;;38.08;6.75;;;;;;;;;;5128430;27;20456;-76
2021/03/21 08:13:27;;;;;;;36.22;5.68;;;;;;;;;;5131027;27;20434;-77
2021/03/21 08:15:53;;;;;;;49.70;8.52;;;;;;;;;;5132707;27;20378;-77
2021/03/21 08:18:22;;;;;;;64.75;8.23;;;;;;;;;;5132414;27;20035;-77
2021/03/21 08:20:53;;;;;;;47.20;6.95;;;;;;;;;;5137733;27;20063;-78
2021/03/21 08:23:31;;;;;;;40.55;6.22;;;;;;;;;;5124165;27;20047;-78
2021/03/21 08:25:59;;;;;;;39.58;5.68;;;;;;;;;;5155966;27;20517;-76
2021/03/21 08:28:35;;;;;;;52.03;8.50;;;;;;;;;;5128944;27;20032;-76
2021/03/21 08:31:02;;;;;;;53.30;7.47;;;;;;;;;;5128045;27;20410;-78
2021/03/21 08:33:39;;;;;;;43.00;9.13;;;;;;;;;;5132298;27;20057;-88
2021/03/21 08:36:24;;;;;;;43.40;6.50;;;;;;;;;;5157513;27;20073;-82
2021/03/21 08:39:02;;;;;;;41.53;6.50;;;;;;;;;;5118564;27;20335;-82
2021/03/21 08:41:29;;;;;;;40.85;7.82;;;;;;;;;;5129970;27;20401;-84
2021/03/21 08:44:07;;;;;;;45.80;8.65;;;;;;;;;;5134334;27;20035;-79
2021/03/21 08:46:34;;;;;;;48.80;7.07;;;;;;;;;;5131760;27;20091;-73
2021/03/21 08:49:20;;;;;;;49.08;7.40;;;;;;;;;;5131203;27;20043;-74
2021/03/21 08:51:47;;;;;;;36.17;6.80;;;;;;;;;;5131098;27;20468;-79
2021/03/21 08:54:22;;;;;;;45.28;6.72;;;;;;;;;;5129332;27;20049;-76
2021/03/21 08:57:08;;;;;;;42.33;7.15;;;;;;;;;;5131008;27;20370;-75
2021/03/21 08:59:36;;;;;;;44.28;6.25;;;;;;;;;;5112554;27;20249;-80
2021/03/21 09:02:05;;;;;;;49.33;8.77;;;;;;;;;;5129685;27;20031;-75
2021/03/21 09:04:32;;;;;;;53.22;6.78;;;;;;;;;;5131373;27;20039;-76
2021/03/21 09:07:28;;;;;;;35.83;5.85;;;;;;;;;;5131536;27;20043;-77
2021/03/21 09:10:08;;;;;;;45.97;6.85;;;;;;;;;;5113151;27;20131;-76
2021/03/21 09:12:37;;;;;;;38.10;7.63;;;;;;;;;;5130742;27;20500;-73
2021/03/21 09:15:22;;;;;;;47.53;7.15;;;;;;;;;;5131192;27;20038;-74
2021/03/21 09:18:03;;;;;;;43.20;6.60;;;;;;;;;;5130330;27;20083;-77
2021/03/21 09:20:30;;;;;;;45.55;6.82;;;;;;;;;;5129155;27;20256;-82
2021/03/21 09:22:56;;;;;;;50.05;8.20;;;;;;;;;;5131387;27;20050;-77
2021/03/21 09:25:29;;;;;;;39.25;6.53;;;;;;;;;;5130291;28;20074;-79
2021/03/21 09:27:56;;;;;;;41.45;7.15;;;;;;;;;;5123188;28;20035;-80
2021/03/21 09:30:29;;;;;;;49.45;8.05;;;;;;;;;;5128683;28;20136;-78
2021/03/21 09:32:56;;;;;;;38.95;6.28;;;;;;;;;;5129261;28;20075;-78
2021/03/21 09:35:41;;;;;;;50.67;6.80;;;;;;;;;;5130943;27;20486;-77
2021/03/21 09:38:13;;;;;;;31.13;5.25;;;;;;;;;;5133255;27;20047;-76
2021/03/21 09:40:40;;;;;;;40.20;6.95;;;;;;;;;;5135769;27;20484;-76
2021/03/21 09:43:10;;;;;;;33.25;6.78;;;;;;;;;;5145180;27;20511;-77
2021/03/21 09:45:37;;;;;;;41.92;6.90;;;;;;;;;;5161248;27;20392;-77
2021/03/21 09:48:13;;;;;;;40.58;6.78;;;;;;;;;;5137116;27;20562;-79
2021/03/21 09:50:39;;;;;;;45.08;7.78;;;;;;;;;;5140440;27;20042;-77
2021/03/21 09:53:24;;;;;;;50.47;10.23;;;;;;;;;;5143310;27;20045;-75
2021/03/21 09:55:50;;;;;;;;;;;;;;;;;;5135698;27;20044;-75
2021/03/21 09:58:34;;;;;;;38.97;6.45;;;;;;;;;;5132155;27;19927;-75
2021/03/21 10:01:11;;;;;;;36.40;7.35;;;;;;;;;;5135503;27;20043;-80
2021/03/21 10:03:38;;;;;;;49.60;6.35;;;;;;;;;;5134957;27;20134;-77
2021/03/21 10:06:13;;;;;;;40.05;6.40;;;;;;;;;;5136270;27;20039;-76
2021/03/21 10:08:58;;;;;;;39.33;6.28;;;;;;;;;;5135188;27;20043;-77
2021/03/21 10:11:28;;;;;;;37.35;6.25;;;;;;;;;;5114146;28;20078;-79
2021/03/21 10:13:54;;;;;;;43.28;6.60;;;;;;;;;;5131524;27;20118;-76
2021/03/21 10:16:27;;;;;;;37.42;6.28;;;;;;;;;;5134031;27;20046;-76
2021/03/21 10:19:22;;;;;;;39.38;6.22;;;;;;;;;;5134029;27;20035;-77
2021/03/21 10:21:49;;;;;;;44.80;5.93;;;;;;;;;;5113709;27;20055;-77
2021/03/21 10:24:28;;;;;;;41.47;6.03;;;;;;;;;;5114035;28;20090;-80
2021/03/21 10:27:21;;;;;;;39.80;6.18;;;;;;;;;;5130342;27;20490;-79
2021/03/21 10:30:06;;;;;;;39.60;7.43;;;;;;;;;;5092823;27;20066;-78
2021/03/21 10:32:33;;;;;;;43.10;8.30;;;;;;;;;;5129574;27;20042;-78
2021/03/21 10:34:59;;;;;;;37.95;6.78;;;;;;;;;;5133300;27;20074;-76
2021/03/21 10:37:41;;;;;;;44.25;7.18;;;;;;;;;;5133660;27;20122;-80
2021/03/21 10:40:07;;;;;;;43.88;7.80;;;;;;;;;;5125641;27;20041;-80
2021/03/21 10:42:38;;;;;;;42.20;7.28;;;;;;;;;;5134345;27;20067;-81
2021/03/21 10:45:06;;;;;;;41.00;6.35;;;;;;;;;;5118992;27;20371;-85
2021/03/21 10:47:33;;;;;;;42.83;7.55;;;;;;;;;;5134178;27;20466;-79
2021/03/21 10:50:00;;;;;;;36.92;6.00;;;;;;;;;;5132545;27;20039;-79
2021/03/21 10:52:34;;;;;;;34.58;6.15;;;;;;;;;;5133019;27;20043;-80
2021/03/21 10:55:12;;;;;;;44.53;6.10;;;;;;;;;;5134225;27;20051;-84
2021/03/21 10:57:44;;;;;;;41.08;7.70;;;;;;;;;;5132063;27;20043;-80
2021/03/21 11:00:13;;;;;;;41.90;7.35;;;;;;;;;;5134482;27;20046;-81
2021/03/21 11:02:43;;;;;;;51.70;9.27;;;;;;;;;;5133141;27;20035;-82
2021/03/21 11:05:23;;;;;;;40.22;6.70;;;;;;;;;;5133429;27;20049;-80
2021/03/21 11:08:00;;;;;;;40.13;6.70;;;;;;;;;;5133394;27;20058;-86
2021/03/21 11:10:29;;;;;;;35.53;5.70;;;;;;;;;;5135242;27;20043;-82
2021/03/21 11:12:55;;;;;;;37.10;5.43;;;;;;;;;;5134772;27;20096;-87
2021/03/21 11:15:34;;;;;;;37.33;6.82;;;;;;;;;;5135919;27;20043;-87
2021/03/21 11:18:08;;;;;;;37.65;6.28;;;;;;;;;;5134863;27;20112;-73
2021/03/21 11:20:34;;;;;;;;;;;;;;;;;;5133583;27;20043;-80
2021/03/21 11:23:05;;;;;;;45.30;6.47;;;;;;;;;;5134067;27;19919;-78
2021/03/21 11:25:36;;;;;;;36.00;5.43;;;;;;;;;;5132734;27;20031;-84
2021/03/21 11:28:03;;;;;;;40.60;7.22;;;;;;;;;;5133164;27;20062;-77
2021/03/21 11:30:29;;;;;;;45.22;7.22;;;;;;;;;;5131418;27;20043;-82
2021/03/21 11:33:15;;;;;;;39.63;7.00;;;;;;;;;;5133499;27;20046;-79
2021/03/21 11:35:42;;;;;;;38.38;6.20;;;;;;;;;;5131500;27;20051;-80
2021/03/21 11:38:26;;;;;;;50.25;6.90;;;;;;;;;;5132497;27;20039;-75
2021/03/21 11:40:54;;;;;;;29.02;6.25;;;;;;;;;;5131003;27;20047;-76
2021/03/21 11:43:20;;;;;;;42.50;6.60;;;;;;;;;;5133279;27;20039;-76
2021/03/21 11:45:47;;;;;;;39.75;6.22;;;;;;;;;;5132207;27;20031;-78
2021/03/21 11:48:34;;;;;;;38.55;7.40;;;;;;;;;;5131846;27;20062;-81
2021/03/21 11:51:01;;;;;;;33.90;6.47;;;;;;;;;;5132818;27;20045;-80
2021/03/21 11:53:30;;;;;;;40.50;6.25;;;;;;;;;;5133306;27;20049;-77
2021/03/21 11:56:02;;;;;;;28.42;5.38;;;;;;;;;;5132834;27;20035;-77
2021/03/21 11:58:36;;;;;;;50.10;7.43;;;;;;;;;;5132015;27;20063;-76
2021/03/21 12:01:04;;;;;;;29.02;5.75;;;;;;;;;;5131797;27;20039;-81
2021/03/21 12:04:02;;;;;;;43.55;8.32;;;;;;;;;;5131212;27;20059;-80
2021/03/21 12:06:28;;;;;;;42.33;6.22;;;;;;;;;;5117195;27;20397;-77
2021/03/21 12:08:54;;;;;;;48.03;7.82;;;;;;;;;;5132451;27;20085;-79
2021/03/21 12:11:34;;;;;;;41.70;7.85;;;;;;;;;;5130806;27;20063;-78
2021/03/21 12:14:32;;;;;;;41.58;7.10;;;;;;;;;;5132010;27;20505;-82
2021/03/21 12:17:18;;;;;;;40.10;7.80;;;;;;;;;;5087201;27;20492;-88
2021/03/21 12:19:45;;;;;;;48.20;7.85;;;;;;;;;;5132783;27;20054;-82
2021/03/21 12:22:23;;;;;;;40.83;7.78;;;;;;;;;;5133509;27;20543;-83
2021/03/21 12:24:54;;;;;;;41.00;6.65;;;;;;;;;;5131633;27;20398;-84
2021/03/21 12:27:30;;;;;;;32.92;5.95;;;;;;;;;;5132242;27;20047;-81
2021/03/21 12:30:08;;;;;;;35.45;6.15;;;;;;;;;;5133225;27;20058;-83
2021/03/21 12:32:41;;;;;;;32.72;6.50;;;;;;;;;;5128484;27;20043;-79
2021/03/21 12:35:11;;;;;;;40.28;7.72;;;;;;;;;;5134102;27;20493;-80
2021/03/21 12:37:51;;;;;;;37.30;6.50;;;;;;;;;;5132114;27;20118;-76
2021/03/21 12:40:19;;;;;;;36.40;5.80;;;;;;;;;;5126805;27;20092;-78
2021/03/21 12:42:49;;;;;;;44.97;6.13;;;;;;;;;;5131588;27;20039;-77
2021/03/21 12:45:15;;;;;;;36.05;6.75;;;;;;;;;;5123901;27;20405;-83
2021/03/21 12:47:43;;;;;;;30.15;6.13;;;;;;;;;;5125174;27;20110;-81
2021/03/21 12:50:24;;;;;;;33.20;6.22;;;;;;;;;;5126992;27;20036;-79
2021/03/21 12:52:51;;;;;;;42.92;5.88;;;;;;;;;;5131297;27;20035;-83
2021/03/21 12:55:17;;;;;;;29.48;5.70;;;;;;;;;;5130928;27;20051;-84
2021/03/21 12:57:44;;;;;;;33.42;5.47;;;;;;;;;;5128009;27;20478;-81
2021/03/21 13:00:16;;;;;;;41.33;6.95;;;;;;;;;;5130118;27;20466;-75
2021/03/21 13:02:42;;;;;;;28.25;5.15;;;;;;;;;;5125374;27;20039;-76
2021/03/21 13:05:17;;;;;;;35.97;6.72;;;;;;;;;;5120469;27;20031;-76
2021/03/21 13:07:43;;;;;;;35.70;6.80;;;;;;;;;;5131080;27;20043;-75
2021/03/21 13:10:09;;;;;;;40.10;7.15;;;;;;;;;;5128796;27;20122;-83
2021/03/21 13:12:36;;;;;;;38.88;6.85;;;;;;;;;;5132228;27;20047;-83
2021/03/21 13:15:02;;;;;;;33.75;5.88;;;;;;;;;;5132754;27;20500;-82
2021/03/21 13:17:28;;;;;;;44.28;5.47;;;;;;;;;;5119614;27;20474;-87
2021/03/21 13:19:54;;;;;;;31.90;5.90;;;;;;;;;;5145297;27;20040;-84
2021/03/21 13:22:21;;;;;;;39.63;6.22;;;;;;;;;;5121539;27;20112;-77
2021/03/21 13:24:47;;;;;;;36.08;7.10;;;;;;;;;;5133395;27;20073;-82
2021/03/21 13:27:14;;;;;;;39.28;6.28;;;;;;;;;;5129969;28;20114;-82
2021/03/21 13:29:40;;;;;;;38.97;6.68;;;;;;;;;;5148569;28;20059;-84
2021/03/21 13:32:07;;;;;;;47.35;6.90;;;;;;;;;;5133571;28;20384;-83
2021/03/21 13:34:33;;;;;;;40.28;6.25;;;;;;;;;;5135736;27;20060;-83
2021/03/21 13:37:00;;;;;;;44.00;6.88;;;;;;;;;;5131384;28;20068;-85
2021/03/21 13:39:26;;;;;;;33.97;5.70;;;;;;;;;;5116371;28;20398;-86
2021/03/21 13:41:53;;;;;;;29.83;6.18;;;;;;;;;;5140459;27;20035;-78
2021/03/21 13:44:19;;;;;;;43.40;6.20;;;;;;;;;;5131523;27;20179;-84
2021/03/21 13:46:47;;;;;;;35.35;6.75;;;;;;;;;;5115194;28;20043;-78
2021/03/21 13:49:13;;;;;;;37.88;6.65;;;;;;;;;;5131741;28;20054;-85
2021/03/21 13:51:39;;;;;;;32.15;6.68;;;;;;;;;;5127759;28;20078;-84
2021/03/21 13:54:06;;;;;;;33.83;6.47;;;;;;;;;;5117170;28;20440;-86
2021/03/21 13:56:32;;;;;;;38.08;7.65;;;;;;;;;;5127628;27;20039;-85
2021/03/21 13:58:58;;;;;;;38.92;6.75;;;;;;;;;;5126960;27;20090;-84
2021/03/21 14:01:24;;;;;;;33.30;5.97;;;;;;;;;;5135655;27;20727;-83
2021/03/21 14:03:53;;;;;;;35.58;6.10;;;;;;;;;;5129973;28;20450;-80
2021/03/21 14:06:20;;;;;;;46.55;6.13;;;;;;;;;;5132023;27;20063;-85
2021/03/21 14:08:46;;;;;;;36.00;6.00;;;;;;;;;;5142952;27;20104;-85
2021/03/21 14:11:12;;;;;;;35.03;5.60;;;;;;;;;;5112613;28;20047;-84
2021/03/21 14:13:38;;;;;;;37.10;5.70;;;;;;;;;;5130038;27;20039;-86
2021/03/21 14:16:05;;;;;;;39.67;6.38;;;;;;;;;;5112988;27;20409;-88
2021/03/21 14:18:31;;;;;;;43.20;7.05;;;;;;;;;;5132453;27;20038;-80
2021/03/21 14:20:57;;;;;;;39.17;6.72;;;;;;;;;;5135081;27;20065;-85
2021/03/21 14:23:25;;;;;;;41.65;7.38;;;;;;;;;;5113656;27;20058;-83
2021/03/21 14:25:51;;;;;;;41.88;6.75;;;;;;;;;;5129397;27;20063;-78
2021/03/21 14:28:17;;;;;;;37.83;5.65;;;;;;;;;;5163632;27;20047;-85
2021/03/21 14:30:44;;;;;;;42.28;6.15;;;;;;;;;;5134834;27;20044;-78
2021/03/21 14:33:11;;;;;;;35.35;5.63;;;;;;;;;;5127826;27;20047;-80
2021/03/21 14:35:38;;;;;;;32.15;5.53;;;;;;;;;;5130442;27;20487;-85
2021/03/21 14:38:06;;;;;;;33.90;6.80;;;;;;;;;;5131677;27;20043;-77
2021/03/21 14:40:32;;;;;;;34.72;5.25;;;;;;;;;;5129115;27;20043;-76
2021/03/21 14:42:58;;;;;;;32.45;5.72;;;;;;;;;;5116882;27;20062;-87
2021/03/21 14:45:25;;;;;;;29.45;5.22;;;;;;;;;;5132964;27;20047;-77
2021/03/21 14:47:51;;;;;;;36.92;6.85;;;;;;;;;;5132014;27;20035;-78
2021/03/21 14:50:18;;;;;;;31.58;5.15;;;;;;;;;;5114497;27;20622;-77
2021/03/21 14:52:47;;;;;;;33.85;5.88;;;;;;;;;;5132558;27;20039;-76
2021/03/21 14:55:13;;;;;;;39.05;6.68;;;;;;;;;;5128061;27;20043;-78